sensor_id;sensor_type;location;lat;lon;timestamp;temperature;humidity
11908;DHT22;6014;47.690;9.130;2023-08-20T00:00:00;21.00;99.90
11908;DHT22;6014;47.690;9.130;2023-08-20T00:02:32;21.00;99.90
11908;DHT22;6014;47.690;9.130;2023-08-20T00:05:02;20.90;99.90
11908;DHT22;6014;47.690;9.130;2023-08-20T00:07:31;20.90;99.90
11908;DHT22;6014;47.690;9.130;2023-08-20T00:10:00;20.90;99.90
11908;DHT22;6014;47.690;9.130;2023-08-20T00:12:30;21.00;99.90
11908;DHT22;6014;47.690;9.130;2023-08-20T00:15:00;20.90;99.90
11908;DHT22;6014;47.690;9.130;2023-08-20T00:17:35;20.80;99.90
11908;DHT22;6014;47.690;9.130;2023-08-20T00:20:13;20.80;99.90
11908;DHT22;6014;47.690;9.130;2023-08-20T00:22:43;20.80;99.90
11908;DHT22;6014;47.690;9.130;2023-08-20T00:25:13;20.60;99.90
11908;DHT22;6014;47.690;9.130;2023-08-20T00:27:43;20.60;99.90
11908;DHT22;6014;47.690;9.130;2023-08-20T00:30:12;20.60;99.90
11908;DHT22;6014;47.690;9.130;2023-08-20T00:32:41;20.50;99.90
11908;DHT22;6014;47.690;9.130;2023-08-20T00:35:22;20.60;99.90
11908;DHT22;6014;47.690;9.130;2023-08-20T00:37:50;20.50;99.90
11908;DHT22;6014;47.690;9.130;2023-08-20T00:40:18;20.50;99.90
11908;DHT22;6014;47.690;9.130;2023-08-20T00:43:11;20.50;99.90
11908;DHT22;6014;47.690;9.130;2023-08-20T00:45:41;20.40;99.90
11908;DHT22;6014;47.690;9.130;2023-08-20T00:48:10;20.40;99.90
11908;DHT22;6014;47.690;9.130;2023-08-20T00:50:39;20.30;99.90
11908;DHT22;6014;47.690;9.130;2023-08-20T00:53:10;20.20;99.90
11908;DHT22;6014;47.690;9.130;2023-08-20T00:55:38;20.20;99.90
11908;DHT22;6014;47.690;9.130;2023-08-20T00:58:07;20.20;99.90
11908;DHT22;6014;47.690;9.130;2023-08-20T01:00:36;20.10;99.90
11908;DHT22;6014;47.690;9.130;2023-08-20T01:03:26;20.10;99.90
11908;DHT22;6014;47.690;9.130;2023-08-20T01:06:03;20.00;99.90
11908;DHT22;6014;47.690;9.130;2023-08-20T01:08:38;19.90;99.90
11908;DHT22;6014;47.690;9.130;2023-08-20T01:11:12;20.00;99.90
11908;DHT22;6014;47.690;9.130;2023-08-20T01:13:44;19.90;99.90
11908;DHT22;6014;47.690;9.130;2023-08-20T01:16:14;19.80;99.90
11908;DHT22;6014;47.690;9.130;2023-08-20T01:18:43;19.70;99.90
11908;DHT22;6014;47.690;9.130;2023-08-20T01:21:24;19.80;99.90
11908;DHT22;6014;47.690;9.130;2023-08-20T01:24:10;19.90;99.90
11908;DHT22;6014;47.690;9.130;2023-08-20T01:26:54;19.90;99.90
11908;DHT22;6014;47.690;9.130;2023-08-20T01:29:25;19.90;99.90
11908;DHT22;6014;47.690;9.130;2023-08-20T01:31:54;19.80;99.90
11908;DHT22;6014;47.690;9.130;2023-08-20T01:34:22;19.70;99.90
11908;DHT22;6014;47.690;9.130;2023-08-20T01:36:51;19.60;99.90
11908;DHT22;6014;47.690;9.130;2023-08-20T01:39:19;19.60;99.90
11908;DHT22;6014;47.690;9.130;2023-08-20T01:41:47;19.50;99.90
11908;DHT22;6014;47.690;9.130;2023-08-20T01:44:15;19.40;99.90
11908;DHT22;6014;47.690;9.130;2023-08-20T01:46:45;19.40;99.90
11908;DHT22;6014;47.690;9.130;2023-08-20T01:49:13;19.40;99.90
11908;DHT22;6014;47.690;9.130;2023-08-20T01:51:41;19.40;99.90
11908;DHT22;6014;47.690;9.130;2023-08-20T01:54:09;19.40;99.90
11908;DHT22;6014;47.690;9.130;2023-08-20T01:56:37;19.50;99.90
11908;DHT22;6014;47.690;9.130;2023-08-20T01:59:05;19.60;99.90
11908;DHT22;6014;47.690;9.130;2023-08-20T02:01:33;19.50;99.90
11908;DHT22;6014;47.690;9.130;2023-08-20T02:04:03;19.50;99.90
11908;DHT22;6014;47.690;9.130;2023-08-20T02:06:31;19.40;99.90
11908;DHT22;6014;47.690;9.130;2023-08-20T02:08:59;19.30;99.90
11908;DHT22;6014;47.690;9.130;2023-08-20T02:11:27;19.20;99.90
11908;DHT22;6014;47.690;9.130;2023-08-20T02:13:56;19.10;99.90
11908;DHT22;6014;47.690;9.130;2023-08-20T02:16:25;19.20;99.90
11908;DHT22;6014;47.690;9.130;2023-08-20T02:18:53;19.30;99.90
11908;DHT22;6014;47.690;9.130;2023-08-20T02:21:23;19.40;99.90
11908;DHT22;6014;47.690;9.130;2023-08-20T02:23:51;19.40;99.90
11908;DHT22;6014;47.690;9.130;2023-08-20T02:26:19;19.40;99.90
11908;DHT22;6014;47.690;9.130;2023-08-20T02:28:47;19.20;99.90
11908;DHT22;6014;47.690;9.130;2023-08-20T02:31:15;19.10;99.90
11908;DHT22;6014;47.690;9.130;2023-08-20T02:33:43;19.00;99.90
11908;DHT22;6014;47.690;9.130;2023-08-20T02:36:31;19.00;99.90
11908;DHT22;6014;47.690;9.130;2023-08-20T02:38:59;18.90;99.90
11908;DHT22;6014;47.690;9.130;2023-08-20T02:41:27;19.00;99.90
11908;DHT22;6014;47.690;9.130;2023-08-20T02:43:55;18.90;99.90
11908;DHT22;6014;47.690;9.130;2023-08-20T02:46:23;18.90;99.90
11908;DHT22;6014;47.690;9.130;2023-08-20T02:48:51;18.90;99.90
11908;DHT22;6014;47.690;9.130;2023-08-20T02:51:20;18.80;99.90
11908;DHT22;6014;47.690;9.130;2023-08-20T02:53:49;18.80;99.90
11908;DHT22;6014;47.690;9.130;2023-08-20T02:56:17;18.80;99.90
11908;DHT22;6014;47.690;9.130;2023-08-20T02:58:45;18.70;99.90
11908;DHT22;6014;47.690;9.130;2023-08-20T03:01:24;18.80;99.90
11908;DHT22;6014;47.690;9.130;2023-08-20T03:04:03;18.80;99.90
11908;DHT22;6014;47.690;9.130;2023-08-20T03:06:31;18.80;99.90
11908;DHT22;6014;47.690;9.130;2023-08-20T03:09:00;18.80;99.90
11908;DHT22;6014;47.690;9.130;2023-08-20T03:11:30;18.80;99.90
11908;DHT22;6014;47.690;9.130;2023-08-20T03:14:05;18.80;99.90
11908;DHT22;6014;47.690;9.130;2023-08-20T03:16:33;18.80;99.90
11908;DHT22;6014;47.690;9.130;2023-08-20T03:19:01;18.80;99.90
11908;DHT22;6014;47.690;9.130;2023-08-20T03:21:29;18.70;99.90
11908;DHT22;6014;47.690;9.130;2023-08-20T03:23:59;18.70;99.90
11908;DHT22;6014;47.690;9.130;2023-08-20T03:26:27;18.70;99.90
11908;DHT22;6014;47.690;9.130;2023-08-20T03:28:55;18.80;99.90
11908;DHT22;6014;47.690;9.130;2023-08-20T03:31:24;18.80;99.90
11908;DHT22;6014;47.690;9.130;2023-08-20T03:33:52;18.70;99.90
11908;DHT22;6014;47.690;9.130;2023-08-20T03:36:20;18.70;99.90
11908;DHT22;6014;47.690;9.130;2023-08-20T03:38:48;18.70;99.90
11908;DHT22;6014;47.690;9.130;2023-08-20T03:41:17;18.70;99.90
11908;DHT22;6014;47.690;9.130;2023-08-20T03:43:45;18.80;99.90
11908;DHT22;6014;47.690;9.130;2023-08-20T03:46:14;18.80;99.90
11908;DHT22;6014;47.690;9.130;2023-08-20T03:48:43;18.80;99.90
11908;DHT22;6014;47.690;9.130;2023-08-20T03:51:11;18.90;99.90
11908;DHT22;6014;47.690;9.130;2023-08-20T03:53:39;18.90;99.90
11908;DHT22;6014;47.690;9.130;2023-08-20T03:56:08;18.80;99.90
11908;DHT22;6014;47.690;9.130;2023-08-20T03:58:37;18.80;99.90
11908;DHT22;6014;47.690;9.130;2023-08-20T04:01:06;18.70;99.90
11908;DHT22;6014;47.690;9.130;2023-08-20T04:03:34;18.70;99.90
11908;DHT22;6014;47.690;9.130;2023-08-20T04:06:02;18.70;99.90
11908;DHT22;6014;47.690;9.130;2023-08-20T04:08:30;18.70;99.90
11908;DHT22;6014;47.690;9.130;2023-08-20T04:10:58;18.60;99.90
11908;DHT22;6014;47.690;9.130;2023-08-20T04:13:26;18.60;99.90
11908;DHT22;6014;47.690;9.130;2023-08-20T04:15:56;18.60;99.90
11908;DHT22;6014;47.690;9.130;2023-08-20T04:18:24;18.50;99.90
11908;DHT22;6014;47.690;9.130;2023-08-20T04:20:52;18.50;99.90
11908;DHT22;6014;47.690;9.130;2023-08-20T04:23:21;18.50;99.90
11908;DHT22;6014;47.690;9.130;2023-08-20T04:25:49;18.40;99.90
11908;DHT22;6014;47.690;9.130;2023-08-20T04:28:17;18.40;99.90
11908;DHT22;6014;47.690;9.130;2023-08-20T04:30:45;18.30;99.90
11908;DHT22;6014;47.690;9.130;2023-08-20T04:33:14;18.30;99.90
11908;DHT22;6014;47.690;9.130;2023-08-20T04:35:42;18.30;99.90
11908;DHT22;6014;47.690;9.130;2023-08-20T04:38:10;18.40;99.90
11908;DHT22;6014;47.690;9.130;2023-08-20T04:40:55;18.50;99.90
11908;DHT22;6014;47.690;9.130;2023-08-20T04:43:24;18.40;99.90
11908;DHT22;6014;47.690;9.130;2023-08-20T04:45:52;18.40;99.90
11908;DHT22;6014;47.690;9.130;2023-08-20T04:48:22;18.40;99.90
11908;DHT22;6014;47.690;9.130;2023-08-20T04:50:56;18.50;99.90
11908;DHT22;6014;47.690;9.130;2023-08-20T04:53:26;18.60;99.90
11908;DHT22;6014;47.690;9.130;2023-08-20T04:55:54;18.70;99.90
11908;DHT22;6014;47.690;9.130;2023-08-20T04:58:23;18.70;99.90
11908;DHT22;6014;47.690;9.130;2023-08-20T05:00:53;18.70;99.90
11908;DHT22;6014;47.690;9.130;2023-08-20T05:03:24;18.80;99.90
11908;DHT22;6014;47.690;9.130;2023-08-20T05:06:02;19.00;99.90
11908;DHT22;6014;47.690;9.130;2023-08-20T05:08:31;19.10;99.90
11908;DHT22;6014;47.690;9.130;2023-08-20T05:11:06;19.10;99.90
11908;DHT22;6014;47.690;9.130;2023-08-20T05:13:50;19.30;99.90
11908;DHT22;6014;47.690;9.130;2023-08-20T05:16:18;19.40;99.90
11908;DHT22;6014;47.690;9.130;2023-08-20T05:18:52;19.70;99.90
11908;DHT22;6014;47.690;9.130;2023-08-20T05:21:20;20.10;99.90
11908;DHT22;6014;47.690;9.130;2023-08-20T05:24:15;20.20;99.90
11908;DHT22;6014;47.690;9.130;2023-08-20T05:26:43;20.80;99.90
11908;DHT22;6014;47.690;9.130;2023-08-20T05:29:11;20.80;99.90
11908;DHT22;6014;47.690;9.130;2023-08-20T05:31:41;20.60;99.90
11908;DHT22;6014;47.690;9.130;2023-08-20T05:34:11;20.40;99.90
11908;DHT22;6014;47.690;9.130;2023-08-20T05:36:40;20.30;99.90
11908;DHT22;6014;47.690;9.130;2023-08-20T05:39:09;20.30;99.90
11908;DHT22;6014;47.690;9.130;2023-08-20T05:41:41;20.50;99.90
11908;DHT22;6014;47.690;9.130;2023-08-20T05:44:09;20.90;99.90
11908;DHT22;6014;47.690;9.130;2023-08-20T05:46:37;21.20;99.90
11908;DHT22;6014;47.690;9.130;2023-08-20T05:49:07;21.60;99.90
11908;DHT22;6014;47.690;9.130;2023-08-20T05:51:36;22.00;99.90
11908;DHT22;6014;47.690;9.130;2023-08-20T05:54:04;21.90;99.90
11908;DHT22;6014;47.690;9.130;2023-08-20T05:56:32;22.00;99.90
11908;DHT22;6014;47.690;9.130;2023-08-20T05:59:00;22.00;99.90
11908;DHT22;6014;47.690;9.130;2023-08-20T06:01:36;22.00;99.90
11908;DHT22;6014;47.690;9.130;2023-08-20T06:04:04;22.10;99.90
11908;DHT22;6014;47.690;9.130;2023-08-20T06:06:32;22.50;99.90
11908;DHT22;6014;47.690;9.130;2023-08-20T06:09:02;22.90;99.90
11908;DHT22;6014;47.690;9.130;2023-08-20T06:11:35;23.20;99.90
11908;DHT22;6014;47.690;9.130;2023-08-20T06:14:04;23.20;99.90
11908;DHT22;6014;47.690;9.130;2023-08-20T06:16:32;23.30;99.90
11908;DHT22;6014;47.690;9.130;2023-08-20T06:19:00;23.40;99.90
11908;DHT22;6014;47.690;9.130;2023-08-20T06:21:40;23.70;99.90
11908;DHT22;6014;47.690;9.130;2023-08-20T06:24:10;24.10;99.90
11908;DHT22;6014;47.690;9.130;2023-08-20T06:26:38;24.80;99.90
11908;DHT22;6014;47.690;9.130;2023-08-20T06:29:06;25.20;99.90
11908;DHT22;6014;47.690;9.130;2023-08-20T06:31:34;25.40;99.90
11908;DHT22;6014;47.690;9.130;2023-08-20T06:34:02;25.30;99.90
11908;DHT22;6014;47.690;9.130;2023-08-20T06:36:30;25.70;99.90
11908;DHT22;6014;47.690;9.130;2023-08-20T06:38:58;26.20;99.90
11908;DHT22;6014;47.690;9.130;2023-08-20T06:41:28;26.30;99.90
11908;DHT22;6014;47.690;9.130;2023-08-20T06:44:05;26.40;99.90
11908;DHT22;6014;47.690;9.130;2023-08-20T06:46:33;26.40;99.90
11908;DHT22;6014;47.690;9.130;2023-08-20T06:49:01;26.00;99.90
11908;DHT22;6014;47.690;9.130;2023-08-20T06:51:36;25.30;99.90
11908;DHT22;6014;47.690;9.130;2023-08-20T06:54:04;25.30;99.90
11908;DHT22;6014;47.690;9.130;2023-08-20T06:56:34;26.00;99.90
11908;DHT22;6014;47.690;9.130;2023-08-20T06:59:02;26.20;99.90
11908;DHT22;6014;47.690;9.130;2023-08-20T07:01:30;26.30;99.90
11908;DHT22;6014;47.690;9.130;2023-08-20T07:03:58;26.90;99.90
11908;DHT22;6014;47.690;9.130;2023-08-20T07:06:33;27.30;99.90
11908;DHT22;6014;47.690;9.130;2023-08-20T07:09:02;26.90;99.90
11908;DHT22;6014;47.690;9.130;2023-08-20T07:11:30;26.00;99.90
11908;DHT22;6014;47.690;9.130;2023-08-20T07:14:00;26.30;99.90
11908;DHT22;6014;47.690;9.130;2023-08-20T07:16:28;26.60;99.90
11908;DHT22;6014;47.690;9.130;2023-08-20T07:18:56;26.80;99.90
11908;DHT22;6014;47.690;9.130;2023-08-20T07:21:24;27.00;99.90
11908;DHT22;6014;47.690;9.130;2023-08-20T07:23:52;27.00;99.90
11908;DHT22;6014;47.690;9.130;2023-08-20T07:26:21;27.10;99.50
11908;DHT22;6014;47.690;9.130;2023-08-20T07:28:49;27.00;98.80
11908;DHT22;6014;47.690;9.130;2023-08-20T07:31:30;27.30;99.20
11908;DHT22;6014;47.690;9.130;2023-08-20T07:33:59;27.00;97.40
11908;DHT22;6014;47.690;9.130;2023-08-20T07:36:30;27.50;99.30
11908;DHT22;6014;47.690;9.130;2023-08-20T07:38:59;28.10;97.30
11908;DHT22;6014;47.690;9.130;2023-08-20T07:41:29;28.30;95.60
11908;DHT22;6014;47.690;9.130;2023-08-20T07:43:57;28.40;94.80
11908;DHT22;6014;47.690;9.130;2023-08-20T07:46:25;28.60;95.10
11908;DHT22;6014;47.690;9.130;2023-08-20T07:48:55;28.60;93.80
11908;DHT22;6014;47.690;9.130;2023-08-20T07:51:23;28.80;93.00
11908;DHT22;6014;47.690;9.130;2023-08-20T07:53:51;28.20;92.20
11908;DHT22;6014;47.690;9.130;2023-08-20T07:56:19;28.30;92.30
11908;DHT22;6014;47.690;9.130;2023-08-20T07:58:47;27.80;92.00
11908;DHT22;6014;47.690;9.130;2023-08-20T08:01:15;28.10;92.80
11908;DHT22;6014;47.690;9.130;2023-08-20T08:03:43;28.60;90.20
11908;DHT22;6014;47.690;9.130;2023-08-20T08:06:13;29.00;89.20
11908;DHT22;6014;47.690;9.130;2023-08-20T08:08:42;28.70;86.10
11908;DHT22;6014;47.690;9.130;2023-08-20T08:11:12;28.90;84.80
11908;DHT22;6014;47.690;9.130;2023-08-20T08:13:41;29.20;85.40
11908;DHT22;6014;47.690;9.130;2023-08-20T08:16:09;29.40;89.60
11908;DHT22;6014;47.690;9.130;2023-08-20T08:18:37;29.40;90.30
11908;DHT22;6014;47.690;9.130;2023-08-20T08:21:07;29.40;89.30
11908;DHT22;6014;47.690;9.130;2023-08-20T08:23:37;29.40;90.00
11908;DHT22;6014;47.690;9.130;2023-08-20T08:26:05;29.30;87.30
11908;DHT22;6014;47.690;9.130;2023-08-20T08:28:33;29.70;88.30
11908;DHT22;6014;47.690;9.130;2023-08-20T08:31:01;29.60;87.80
11908;DHT22;6014;47.690;9.130;2023-08-20T08:33:32;29.80;90.00
11908;DHT22;6014;47.690;9.130;2023-08-20T08:36:00;30.00;85.80
11908;DHT22;6014;47.690;9.130;2023-08-20T08:38:30;29.80;82.30
11908;DHT22;6014;47.690;9.130;2023-08-20T08:41:00;29.80;81.60
11908;DHT22;6014;47.690;9.130;2023-08-20T08:43:29;29.70;82.60
11908;DHT22;6014;47.690;9.130;2023-08-20T08:45:58;29.70;79.30
11908;DHT22;6014;47.690;9.130;2023-08-20T08:48:28;30.00;77.70
11908;DHT22;6014;47.690;9.130;2023-08-20T08:50:56;30.20;77.80
11908;DHT22;6014;47.690;9.130;2023-08-20T08:53:25;30.30;74.50
11908;DHT22;6014;47.690;9.130;2023-08-20T08:55:53;29.90;77.70
11908;DHT22;6014;47.690;9.130;2023-08-20T08:58:22;30.10;78.90
11908;DHT22;6014;47.690;9.130;2023-08-20T09:00:50;30.40;77.80
11908;DHT22;6014;47.690;9.130;2023-08-20T09:03:19;30.80;75.50
11908;DHT22;6014;47.690;9.130;2023-08-20T09:05:47;30.90;76.30
11908;DHT22;6014;47.690;9.130;2023-08-20T09:08:19;30.40;76.00
11908;DHT22;6014;47.690;9.130;2023-08-20T09:10:50;30.40;74.50
11908;DHT22;6014;47.690;9.130;2023-08-20T09:13:24;30.90;79.10
11908;DHT22;6014;47.690;9.130;2023-08-20T09:15:53;30.90;75.90
11908;DHT22;6014;47.690;9.130;2023-08-20T09:18:21;30.40;73.80
11908;DHT22;6014;47.690;9.130;2023-08-20T09:20:49;30.10;77.60
11908;DHT22;6014;47.690;9.130;2023-08-20T09:23:17;30.10;75.80
11908;DHT22;6014;47.690;9.130;2023-08-20T09:25:45;30.10;78.00
11908;DHT22;6014;47.690;9.130;2023-08-20T09:28:14;30.00;78.60
11908;DHT22;6014;47.690;9.130;2023-08-20T09:30:56;30.20;77.80
11908;DHT22;6014;47.690;9.130;2023-08-20T09:33:24;30.30;76.30
11908;DHT22;6014;47.690;9.130;2023-08-20T09:35:54;29.90;76.90
11908;DHT22;6014;47.690;9.130;2023-08-20T09:38:24;30.10;78.00
11908;DHT22;6014;47.690;9.130;2023-08-20T09:40:53;30.50;75.50
11908;DHT22;6014;47.690;9.130;2023-08-20T09:43:24;30.20;73.90
11908;DHT22;6014;47.690;9.130;2023-08-20T09:45:59;30.90;74.70
11908;DHT22;6014;47.690;9.130;2023-08-20T09:48:33;30.80;72.90
11908;DHT22;6014;47.690;9.130;2023-08-20T09:51:04;31.10;76.20
11908;DHT22;6014;47.690;9.130;2023-08-20T09:53:35;31.20;73.40
11908;DHT22;6014;47.690;9.130;2023-08-20T09:56:09;31.70;73.20
11908;DHT22;6014;47.690;9.130;2023-08-20T09:58:38;31.20;72.00
11908;DHT22;6014;47.690;9.130;2023-08-20T10:01:09;31.50;71.70
11908;DHT22;6014;47.690;9.130;2023-08-20T10:03:37;31.80;71.10
11908;DHT22;6014;47.690;9.130;2023-08-20T10:06:06;31.70;70.20
11908;DHT22;6014;47.690;9.130;2023-08-20T10:08:34;31.30;70.10
11908;DHT22;6014;47.690;9.130;2023-08-20T10:11:03;31.40;69.30
11908;DHT22;6014;47.690;9.130;2023-08-20T10:13:31;31.50;68.00
11908;DHT22;6014;47.690;9.130;2023-08-20T10:15:59;31.60;71.20
11908;DHT22;6014;47.690;9.130;2023-08-20T10:18:29;31.20;69.20
11908;DHT22;6014;47.690;9.130;2023-08-20T10:20:58;31.40;68.70
11908;DHT22;6014;47.690;9.130;2023-08-20T10:23:35;31.00;67.20
11908;DHT22;6014;47.690;9.130;2023-08-20T10:26:07;31.40;70.60
11908;DHT22;6014;47.690;9.130;2023-08-20T10:28:35;32.00;65.30
11908;DHT22;6014;47.690;9.130;2023-08-20T10:31:06;32.00;64.10
11908;DHT22;6014;47.690;9.130;2023-08-20T10:33:37;32.00;62.90
11908;DHT22;6014;47.690;9.130;2023-08-20T10:36:10;32.50;62.90
11908;DHT22;6014;47.690;9.130;2023-08-20T10:38:38;32.70;61.00
11908;DHT22;6014;47.690;9.130;2023-08-20T10:41:07;31.80;61.80
11908;DHT22;6014;47.690;9.130;2023-08-20T10:43:37;31.80;61.80
11908;DHT22;6014;47.690;9.130;2023-08-20T10:46:07;31.60;61.20
11908;DHT22;6014;47.690;9.130;2023-08-20T10:48:38;31.30;60.50
11908;DHT22;6014;47.690;9.130;2023-08-20T10:51:11;31.90;62.70
11908;DHT22;6014;47.690;9.130;2023-08-20T10:53:41;32.30;61.80
11908;DHT22;6014;47.690;9.130;2023-08-20T10:56:14;32.50;60.20
11908;DHT22;6014;47.690;9.130;2023-08-20T10:58:44;32.80;56.90
11908;DHT22;6014;47.690;9.130;2023-08-20T11:01:14;33.40;56.00
11908;DHT22;6014;47.690;9.130;2023-08-20T11:03:45;34.00;55.10
11908;DHT22;6014;47.690;9.130;2023-08-20T11:06:13;34.00;55.20
11908;DHT22;6014;47.690;9.130;2023-08-20T11:08:42;33.30;55.10
11908;DHT22;6014;47.690;9.130;2023-08-20T11:11:10;32.90;54.50
11908;DHT22;6014;47.690;9.130;2023-08-20T11:13:39;32.90;56.00
11908;DHT22;6014;47.690;9.130;2023-08-20T11:16:12;33.10;54.00
11908;DHT22;6014;47.690;9.130;2023-08-20T11:18:40;33.10;53.80
11908;DHT22;6014;47.690;9.130;2023-08-20T11:21:11;33.80;54.40
11908;DHT22;6014;47.690;9.130;2023-08-20T11:23:40;34.10;51.20
11908;DHT22;6014;47.690;9.130;2023-08-20T11:26:09;33.80;49.70
11908;DHT22;6014;47.690;9.130;2023-08-20T11:28:38;34.00;51.20
11908;DHT22;6014;47.690;9.130;2023-08-20T11:31:07;34.60;49.70
11908;DHT22;6014;47.690;9.130;2023-08-20T11:33:35;34.10;48.30
11908;DHT22;6014;47.690;9.130;2023-08-20T11:36:04;34.70;49.60
11908;DHT22;6014;47.690;9.130;2023-08-20T11:38:35;34.10;47.40
11908;DHT22;6014;47.690;9.130;2023-08-20T11:41:03;34.30;48.00
11908;DHT22;6014;47.690;9.130;2023-08-20T11:43:32;33.90;46.80
11908;DHT22;6014;47.690;9.130;2023-08-20T11:46:00;33.50;48.40
11908;DHT22;6014;47.690;9.130;2023-08-20T11:48:28;34.10;46.60
11908;DHT22;6014;47.690;9.130;2023-08-20T11:50:57;34.20;44.10
11908;DHT22;6014;47.690;9.130;2023-08-20T11:53:28;34.60;44.70
11908;DHT22;6014;47.690;9.130;2023-08-20T11:55:58;34.80;47.30
11908;DHT22;6014;47.690;9.130;2023-08-20T11:58:28;34.10;49.20
11908;DHT22;6014;47.690;9.130;2023-08-20T12:00:56;34.40;48.10
11908;DHT22;6014;47.690;9.130;2023-08-20T12:03:29;34.00;47.00
11908;DHT22;6014;47.690;9.130;2023-08-20T12:06:16;34.00;44.30
11908;DHT22;6014;47.690;9.130;2023-08-20T12:08:44;34.60;42.70
11908;DHT22;6014;47.690;9.130;2023-08-20T12:11:14;34.70;43.90
11908;DHT22;6014;47.690;9.130;2023-08-20T12:13:43;34.30;47.60
11908;DHT22;6014;47.690;9.130;2023-08-20T12:16:10;34.70;48.10
11908;DHT22;6014;47.690;9.130;2023-08-20T12:18:39;34.40;48.00
11908;DHT22;6014;47.690;9.130;2023-08-20T12:21:07;34.70;48.00
11908;DHT22;6014;47.690;9.130;2023-08-20T12:23:35;34.90;49.00
11908;DHT22;6014;47.690;9.130;2023-08-20T12:26:03;35.50;48.40
11908;DHT22;6014;47.690;9.130;2023-08-20T12:28:32;35.10;48.20
11908;DHT22;6014;47.690;9.130;2023-08-20T12:31:00;35.20;48.80
11908;DHT22;6014;47.690;9.130;2023-08-20T12:33:29;35.20;46.40
11908;DHT22;6014;47.690;9.130;2023-08-20T12:35:58;35.00;46.20
11908;DHT22;6014;47.690;9.130;2023-08-20T12:38:26;35.00;44.60
11908;DHT22;6014;47.690;9.130;2023-08-20T12:41:00;34.70;44.30
11908;DHT22;6014;47.690;9.130;2023-08-20T12:43:30;34.60;43.90
11908;DHT22;6014;47.690;9.130;2023-08-20T12:46:00;34.70;42.60
11908;DHT22;6014;47.690;9.130;2023-08-20T12:48:28;35.20;43.20
11908;DHT22;6014;47.690;9.130;2023-08-20T12:50:56;34.80;42.70
11908;DHT22;6014;47.690;9.130;2023-08-20T12:53:24;34.40;42.20
11908;DHT22;6014;47.690;9.130;2023-08-20T12:55:52;34.30;42.20
11908;DHT22;6014;47.690;9.130;2023-08-20T12:58:21;34.40;42.70
11908;DHT22;6014;47.690;9.130;2023-08-20T13:00:49;34.60;42.40
11908;DHT22;6014;47.690;9.130;2023-08-20T13:03:19;35.00;43.40
11908;DHT22;6014;47.690;9.130;2023-08-20T13:05:47;35.10;40.50
11908;DHT22;6014;47.690;9.130;2023-08-20T13:08:16;35.20;37.50
11908;DHT22;6014;47.690;9.130;2023-08-20T13:10:49;34.90;38.70
11908;DHT22;6014;47.690;9.130;2023-08-20T13:13:21;35.10;38.40
11908;DHT22;6014;47.690;9.130;2023-08-20T13:15:59;35.00;38.60
11908;DHT22;6014;47.690;9.130;2023-08-20T13:18:30;34.90;39.50
11908;DHT22;6014;47.690;9.130;2023-08-20T13:20:58;35.20;39.10
11908;DHT22;6014;47.690;9.130;2023-08-20T13:23:26;35.50;40.40
11908;DHT22;6014;47.690;9.130;2023-08-20T13:25:54;35.20;39.70
11908;DHT22;6014;47.690;9.130;2023-08-20T13:28:22;35.10;39.80
11908;DHT22;6014;47.690;9.130;2023-08-20T13:30:50;35.30;39.20
11908;DHT22;6014;47.690;9.130;2023-08-20T13:33:19;35.00;40.40
11908;DHT22;6014;47.690;9.130;2023-08-20T13:35:48;35.00;41.60
11908;DHT22;6014;47.690;9.130;2023-08-20T13:38:16;34.90;40.40
11908;DHT22;6014;47.690;9.130;2023-08-20T13:40:45;34.80;42.00
11908;DHT22;6014;47.690;9.130;2023-08-20T13:43:13;35.40;40.60
11908;DHT22;6014;47.690;9.130;2023-08-20T13:45:41;35.10;39.10
11908;DHT22;6014;47.690;9.130;2023-08-20T13:48:10;35.40;40.00
11908;DHT22;6014;47.690;9.130;2023-08-20T13:50:38;35.20;36.20
11908;DHT22;6014;47.690;9.130;2023-08-20T13:53:07;35.10;35.70
11908;DHT22;6014;47.690;9.130;2023-08-20T13:55:37;35.40;36.20
11908;DHT22;6014;47.690;9.130;2023-08-20T13:58:05;35.50;33.20
11908;DHT22;6014;47.690;9.130;2023-08-20T14:00:36;35.60;33.70
11908;DHT22;6014;47.690;9.130;2023-08-20T14:03:04;36.10;34.00
11908;DHT22;6014;47.690;9.130;2023-08-20T14:05:32;35.90;30.90
11908;DHT22;6014;47.690;9.130;2023-08-20T14:08:00;35.90;29.70
11908;DHT22;6014;47.690;9.130;2023-08-20T14:10:31;35.60;29.70
11908;DHT22;6014;47.690;9.130;2023-08-20T14:12:59;35.80;32.10
11908;DHT22;6014;47.690;9.130;2023-08-20T14:15:27;35.50;30.70
11908;DHT22;6014;47.690;9.130;2023-08-20T14:17:55;35.70;30.40
11908;DHT22;6014;47.690;9.130;2023-08-20T14:20:23;36.10;28.90
11908;DHT22;6014;47.690;9.130;2023-08-20T14:22:51;35.40;29.00
11908;DHT22;6014;47.690;9.130;2023-08-20T14:25:20;35.30;29.80
11908;DHT22;6014;47.690;9.130;2023-08-20T14:27:49;35.10;29.20
11908;DHT22;6014;47.690;9.130;2023-08-20T14:30:17;34.80;29.00
11908;DHT22;6014;47.690;9.130;2023-08-20T14:32:45;35.40;29.90
11908;DHT22;6014;47.690;9.130;2023-08-20T14:35:21;35.80;28.80
11908;DHT22;6014;47.690;9.130;2023-08-20T14:37:52;35.70;28.50
11908;DHT22;6014;47.690;9.130;2023-08-20T14:40:20;36.30;27.50
11908;DHT22;6014;47.690;9.130;2023-08-20T14:42:50;36.60;27.20
11908;DHT22;6014;47.690;9.130;2023-08-20T14:45:18;36.60;25.60
11908;DHT22;6014;47.690;9.130;2023-08-20T14:47:46;37.00;25.50
11908;DHT22;6014;47.690;9.130;2023-08-20T14:50:14;36.90;26.30
11908;DHT22;6014;47.690;9.130;2023-08-20T14:52:42;36.10;27.10
11908;DHT22;6014;47.690;9.130;2023-08-20T14:55:10;36.50;26.20
11908;DHT22;6014;47.690;9.130;2023-08-20T14:57:39;36.30;27.30
11908;DHT22;6014;47.690;9.130;2023-08-20T15:03:29;36.70;26.20
11908;DHT22;6014;47.690;9.130;2023-08-20T15:05:57;36.40;26.20
11908;DHT22;6014;47.690;9.130;2023-08-20T15:08:25;36.00;26.10
11908;DHT22;6014;47.690;9.130;2023-08-20T15:10:56;36.20;26.00
11908;DHT22;6014;47.690;9.130;2023-08-20T15:13:26;36.60;26.30
11908;DHT22;6014;47.690;9.130;2023-08-20T15:15:55;37.00;26.40
11908;DHT22;6014;47.690;9.130;2023-08-20T15:18:23;37.00;25.10
11908;DHT22;6014;47.690;9.130;2023-08-20T15:20:57;37.10;25.50
11908;DHT22;6014;47.690;9.130;2023-08-20T15:23:26;36.70;24.60
11908;DHT22;6014;47.690;9.130;2023-08-20T15:25:56;36.60;25.70
11908;DHT22;6014;47.690;9.130;2023-08-20T15:28:24;36.70;25.50
11908;DHT22;6014;47.690;9.130;2023-08-20T15:30:54;36.80;25.60
11908;DHT22;6014;47.690;9.130;2023-08-20T15:33:24;36.30;22.80
11908;DHT22;6014;47.690;9.130;2023-08-20T15:35:52;36.50;25.30
11908;DHT22;6014;47.690;9.130;2023-08-20T15:38:21;36.50;22.10
11908;DHT22;6014;47.690;9.130;2023-08-20T15:40:49;36.60;23.30
11908;DHT22;6014;47.690;9.130;2023-08-20T15:43:17;36.70;23.10
11908;DHT22;6014;47.690;9.130;2023-08-20T15:45:47;36.30;26.10
11908;DHT22;6014;47.690;9.130;2023-08-20T15:48:15;36.10;24.70
11908;DHT22;6014;47.690;9.130;2023-08-20T15:50:44;34.90;25.10
11908;DHT22;6014;47.690;9.130;2023-08-20T15:53:12;34.20;26.00
11908;DHT22;6014;47.690;9.130;2023-08-20T15:55:41;33.80;27.10
11908;DHT22;6014;47.690;9.130;2023-08-20T15:58:09;33.90;27.20
11908;DHT22;6014;47.690;9.130;2023-08-20T16:00:38;34.50;27.20
11908;DHT22;6014;47.690;9.130;2023-08-20T16:03:06;35.30;27.60